createdAt,value
2022-12-19T00:00:32.588Z,116.75
2022-12-19T00:03:06.208Z,115.75
2022-12-19T00:05:38.179Z,123.65
2022-12-19T00:08:17.228Z,97.28
2022-12-19T00:10:56.627Z,106.00
2022-12-19T00:13:25.231Z,121.25
2022-12-19T00:15:53.031Z,125.07
2022-12-19T00:18:22.325Z,112.35
2022-12-19T00:20:57.047Z,108.65
2022-12-19T00:23:26.711Z,124.07
2022-12-19T00:25:55.333Z,83.00
2022-12-19T00:28:22.738Z,112.82
2022-12-19T00:30:51.734Z,114.95
2022-12-19T00:33:22.067Z,126.27
2022-12-19T00:35:49.940Z,122.40
2022-12-19T00:38:19.228Z,123.93
2022-12-19T00:40:46.608Z,119.78
2022-12-19T00:43:14.057Z,113.63
2022-12-19T00:45:41.537Z,121.68
2022-12-19T00:48:08.941Z,120.45
2022-12-19T00:50:37.972Z,122.57
2022-12-19T00:53:06.343Z,105.45
2022-12-19T00:55:33.881Z,121.10
2022-12-19T00:58:01.302Z,115.55
2022-12-19T01:00:28.791Z,95.93
2022-12-19T01:02:56.361Z,119.95
2022-12-19T01:05:23.512Z,118.28
2022-12-19T01:07:51.853Z,120.65
2022-12-19T01:10:19.142Z,120.97
2022-12-19T01:12:46.586Z,107.22
2022-12-19T01:15:17.406Z,117.22
2022-12-19T01:17:45.771Z,123.47
2022-12-19T01:20:29.540Z,120.53
2022-12-19T01:22:58.877Z,111.30
2022-12-19T01:25:27.529Z,115.03
2022-12-19T01:27:58.068Z,126.18
2022-12-19T01:30:26.155Z,120.10
2022-12-19T01:32:57.434Z,122.28
2022-12-19T01:35:25.492Z,122.53
2022-12-19T01:38:08.472Z,128.88
2022-12-19T01:40:37.288Z,127.40
2022-12-19T01:43:07.038Z,110.10
2022-12-19T01:45:39.483Z,127.53
2022-12-19T01:48:32.348Z,123.20
2022-12-19T01:51:16.831Z,126.22
2022-12-19T01:53:49.747Z,108.90
2022-12-19T01:56:24.920Z,113.22
2022-12-19T01:59:05.932Z,115.45
2022-12-19T02:01:36.372Z,111.10
2022-12-19T02:04:18.254Z,112.40
2022-12-19T02:06:45.888Z,101.20
2022-12-19T02:09:13.167Z,86.50
2022-12-19T02:11:40.666Z,95.95
2022-12-19T02:14:07.963Z,96.75
2022-12-19T02:16:44.895Z,97.90
2022-12-19T02:19:38.933Z,106.60
2022-12-19T02:22:38.948Z,94.82
2022-12-19T02:25:46.239Z,105.88
2022-12-19T02:28:42.270Z,107.65
2022-12-19T02:31:42.118Z,95.75
2022-12-19T02:34:41.394Z,83.57
2022-12-19T02:37:38.995Z,81.30
2022-12-19T02:40:17.071Z,78.53
2022-12-19T02:42:48.604Z,90.07
2022-12-19T02:45:22.687Z,78.50
2022-12-19T02:48:03.340Z,93.57
2022-12-19T02:50:42.133Z,90.40
2022-12-19T02:53:14.544Z,83.97
2022-12-19T02:55:52.829Z,91.15
2022-12-19T02:58:35.540Z,78.80
2022-12-19T03:01:35.086Z,87.22
2022-12-19T03:04:21.617Z,87.13
2022-12-19T03:07:23.171Z,91.55
2022-12-19T03:09:59.750Z,90.78
2022-12-19T03:12:36.121Z,75.95
2022-12-19T03:15:04.291Z,93.65
2022-12-19T03:17:36.942Z,80.07
2022-12-19T03:22:57.955Z,83.68
2022-12-19T03:25:26.472Z,82.18
2022-12-19T03:27:55.627Z,84.07
2022-12-19T03:30:24.003Z,91.68
2022-12-19T03:32:52.978Z,93.75
2022-12-19T03:35:26.255Z,88.00
2022-12-19T03:38:02.245Z,87.07
2022-12-19T03:40:32.315Z,85.57
2022-12-19T03:43:09.440Z,82.38
2022-12-19T03:45:48.531Z,59.58
2022-12-19T03:48:47.814Z,75.50
2022-12-19T03:51:38.034Z,90.70
2022-12-19T03:54:37.369Z,81.43
2022-12-19T03:57:14.880Z,83.18
2022-12-19T04:00:02.365Z,82.30
2022-12-19T04:02:36.230Z,86.72
2022-12-19T04:05:10.330Z,58.13
2022-12-19T04:07:39.372Z,63.20
2022-12-19T04:10:09.913Z,76.30
2022-12-19T04:12:42.678Z,78.70
2022-12-19T04:17:59.474Z,73.50
2022-12-19T04:20:28.635Z,77.38
2022-12-19T04:23:03.400Z,58.33
2022-12-19T04:25:38.623Z,77.97
2022-12-19T04:28:23.055Z,79.95
2022-12-19T04:30:58.600Z,67.38
2022-12-19T04:33:26.100Z,72.03
2022-12-19T04:35:53.540Z,69.95
2022-12-19T04:38:21.004Z,75.20
2022-12-19T04:40:48.422Z,71.43
2022-12-19T04:43:15.880Z,59.95
2022-12-19T04:45:43.501Z,78.15
2022-12-19T04:48:13.072Z,68.82
2022-12-19T04:50:40.733Z,69.65
2022-12-19T04:53:08.125Z,54.22
2022-12-19T04:55:36.619Z,65.85
2022-12-19T04:58:07.708Z,64.80
2022-12-19T05:00:35.114Z,55.65
2022-12-19T05:03:04.847Z,45.90
2022-12-19T05:05:32.126Z,60.58
2022-12-19T05:08:00.519Z,62.00
2022-12-19T05:10:28.996Z,45.88
2022-12-19T05:12:56.441Z,45.75
2022-12-19T05:15:23.933Z,51.30
2022-12-19T05:17:51.420Z,51.65
2022-12-19T05:20:18.876Z,54.03
2022-12-19T05:22:46.290Z,51.35
2022-12-19T05:25:13.758Z,41.45
2022-12-19T05:27:41.226Z,34.70
2022-12-19T05:30:11.322Z,35.35
2022-12-19T05:32:39.001Z,45.22
2022-12-19T05:35:06.973Z,45.03
2022-12-19T05:37:36.599Z,31.70
2022-12-19T05:40:04.411Z,33.80
2022-12-19T05:42:31.549Z,29.45
2022-12-19T05:44:59.009Z,34.35
2022-12-19T05:47:26.646Z,35.70
2022-12-19T05:49:54.916Z,26.23
2022-12-19T05:52:24.934Z,26.83
2022-12-19T05:54:54.469Z,32.78
2022-12-19T05:57:21.907Z,30.90
2022-12-19T05:59:49.403Z,40.33
2022-12-19T06:02:16.996Z,36.67
2022-12-19T06:04:45.372Z,31.10
2022-12-19T06:07:16.468Z,32.88
2022-12-19T06:09:46.369Z,37.08
2022-12-19T06:12:13.775Z,30.23
2022-12-19T06:14:41.336Z,28.40
2022-12-19T06:17:08.737Z,34.45
2022-12-19T06:19:36.157Z,41.13
2022-12-19T06:22:03.649Z,31.42
2022-12-19T06:24:31.135Z,26.33
2022-12-19T06:26:58.508Z,31.10
2022-12-19T06:29:26.040Z,35.03
2022-12-19T06:31:53.531Z,41.47
2022-12-19T06:34:54.925Z,40.53
2022-12-19T06:37:12.303Z,30.98
2022-12-19T06:39:40.433Z,34.28
2022-12-19T06:42:24.977Z,38.70
2022-12-19T06:44:55.548Z,38.72
2022-12-19T06:47:24.381Z,42.58
2022-12-19T06:49:53.060Z,38.35
2022-12-19T06:52:22.668Z,31.00
2022-12-19T06:54:49.804Z,38.67
2022-12-19T06:57:17.357Z,41.28
2022-12-19T06:59:46.838Z,42.97
2022-12-19T07:02:36.559Z,35.13
2022-12-19T07:05:07.377Z,38.97
2022-12-19T07:07:42.985Z,35.90
2022-12-19T07:10:11.840Z,35.10
2022-12-19T07:12:45.965Z,35.53
2022-12-19T07:15:13.555Z,37.90
2022-12-19T07:17:42.361Z,37.45
2022-12-19T07:20:10.753Z,34.42
2022-12-19T07:22:39.199Z,40.53
2022-12-19T07:25:07.157Z,28.77
2022-12-19T07:27:42.472Z,28.27
2022-12-19T07:30:10.679Z,28.65
2022-12-19T07:32:39.467Z,37.65
2022-12-19T07:35:07.892Z,33.17
2022-12-19T07:37:35.476Z,26.65
2022-12-19T07:40:05.266Z,31.75
2022-12-19T07:42:33.103Z,29.20
2022-12-19T07:45:01.893Z,29.08
2022-12-19T07:47:29.475Z,35.13
2022-12-19T07:49:57.959Z,26.42
2022-12-19T07:52:30.955Z,31.75
2022-12-19T07:57:27.471Z,29.20
2022-12-19T07:59:56.945Z,21.02
2022-12-19T08:02:24.926Z,31.27
2022-12-19T08:04:52.614Z,23.98
2022-12-19T08:07:20.313Z,23.48
2022-12-19T08:09:47.954Z,25.42
2022-12-19T08:12:17.259Z,19.67
2022-12-19T08:14:44.962Z,29.92
2022-12-19T08:17:21.397Z,21.25
2022-12-19T08:19:48.926Z,19.35
2022-12-19T08:22:16.812Z,26.33
2022-12-19T08:24:45.739Z,27.92
2022-12-19T08:27:13.966Z,24.05
2022-12-19T08:29:42.453Z,20.42
2022-12-19T08:32:09.887Z,25.45
2022-12-19T08:34:37.307Z,21.23
2022-12-19T08:37:04.804Z,23.73
2022-12-19T08:39:32.278Z,22.00
2022-12-19T08:41:59.740Z,28.08
2022-12-19T08:44:27.378Z,20.75
2022-12-19T08:46:54.600Z,22.10
2022-12-19T08:49:22.180Z,21.15
2022-12-19T08:51:50.539Z,17.40
2022-12-19T08:54:18.028Z,21.13
2022-12-19T08:56:46.237Z,21.88
2022-12-19T08:59:20.480Z,15.85
2022-12-19T09:01:58.817Z,16.52
2022-12-19T09:06:02.336Z,14.18
2022-12-19T09:07:15.651Z,19.17
2022-12-19T09:09:44.812Z,17.50
2022-12-19T09:12:14.741Z,13.95
2022-12-19T09:14:42.246Z,19.38
2022-12-19T09:17:09.764Z,12.38
2022-12-19T09:19:37.124Z,15.68
2022-12-19T09:22:05.123Z,15.70
2022-12-19T09:24:34.698Z,17.95
2022-12-19T09:27:04.249Z,16.05
2022-12-19T09:29:35.246Z,16.35
2022-12-19T09:32:03.124Z,18.23
2022-12-19T09:34:36.880Z,15.48
2022-12-19T09:37:07.504Z,15.70
2022-12-19T09:39:37.461Z,14.45
2022-12-19T09:42:19.918Z,17.42
2022-12-19T09:45:26.407Z,11.07
2022-12-19T09:47:59.918Z,14.70
2022-12-19T09:50:55.160Z,14.98
2022-12-19T09:53:35.465Z,14.63
2022-12-19T09:56:03.489Z,14.02
2022-12-19T09:58:41.477Z,13.30
2022-12-19T10:01:20.127Z,10.85
2022-12-19T10:04:11.935Z,14.45
2022-12-19T10:07:11.790Z,13.20
2022-12-19T10:12:15.481Z,15.68
2022-12-19T10:12:47.396Z,11.02
2022-12-19T10:16:00.195Z,13.93
2022-12-19T10:18:42.664Z,16.95
2022-12-19T10:21:50.744Z,13.10
2022-12-19T10:24:36.325Z,15.02
2022-12-19T10:27:32.383Z,13.30
2022-12-19T10:30:21.141Z,13.77
2022-12-19T10:33:07.330Z,15.82
2022-12-19T10:35:45.811Z,13.00
2022-12-19T10:38:14.144Z,14.65
2022-12-19T10:40:54.128Z,11.88
2022-12-19T10:43:44.431Z,13.55
2022-12-19T10:46:49.501Z,14.50
2022-12-19T10:49:19.727Z,14.32
2022-12-19T10:52:04.346Z,16.60
2022-12-19T10:54:39.902Z,15.98
2022-12-19T10:57:33.612Z,14.25
2022-12-19T11:00:17.097Z,14.88
2022-12-19T11:02:54.709Z,12.05
2022-12-19T11:05:32.025Z,15.57
2022-12-19T11:08:14.124Z,10.40
2022-12-19T11:13:04.117Z,12.25
2022-12-19T11:20:41.824Z,17.23
2022-12-19T11:20:51.818Z,16.25
2022-12-19T11:29:41.907Z,11.43
2022-12-19T11:29:54.826Z,12.15
2022-12-19T11:30:48.857Z,12.90
2022-12-19T11:30:59.588Z,12.93
2022-12-19T11:34:24.263Z,15.93
2022-12-19T11:37:02.000Z,11.90
2022-12-19T11:40:04.642Z,13.73
2022-12-19T11:42:38.301Z,13.10
2022-12-19T11:45:18.575Z,10.13
2022-12-19T11:47:53.395Z,13.77
2022-12-19T11:50:30.455Z,13.40
2022-12-19T11:53:19.313Z,11.98
2022-12-19T11:56:16.358Z,12.18
2022-12-19T11:58:53.116Z,12.80
2022-12-19T12:01:43.019Z,16.33
2022-12-19T12:04:31.827Z,14.35
2022-12-19T12:07:04.962Z,12.85
2022-12-19T12:13:19.902Z,14.98
2022-12-19T12:23:26.010Z,12.68
2022-12-19T12:28:26.517Z,11.20
2022-12-19T12:31:14.531Z,12.63
2022-12-19T12:31:28.409Z,11.60
2022-12-19T12:31:46.434Z,11.63
2022-12-19T12:32:04.003Z,15.05
2022-12-19T12:35:40.503Z,17.17
2022-12-19T12:41:14.474Z,17.80
2022-12-19T12:43:56.809Z,14.13
2022-12-19T12:46:28.886Z,15.95
2022-12-19T12:49:12.536Z,14.68
2022-12-19T12:54:15.029Z,16.52
2022-12-19T12:56:43.262Z,14.57
2022-12-19T12:59:25.776Z,18.67
2022-12-19T13:02:01.702Z,15.05
2022-12-19T13:04:41.396Z,14.98
2022-12-19T13:07:24.610Z,19.10
2022-12-19T13:10:13.797Z,15.98
2022-12-19T13:13:04.469Z,22.30
2022-12-19T13:15:38.312Z,17.73
2022-12-19T13:18:40.057Z,13.98
2022-12-19T13:21:09.266Z,18.33
2022-12-19T13:23:38.735Z,12.93
2022-12-19T13:26:20.701Z,14.45
2022-12-19T13:28:48.149Z,13.02
2022-12-19T13:31:21.113Z,16.92
2022-12-19T13:33:53.572Z,22.02
2022-12-19T13:39:54.404Z,18.83
2022-12-19T13:42:53.540Z,14.63
2022-12-19T13:45:39.537Z,20.15
2022-12-19T13:48:15.637Z,20.77
2022-12-19T13:50:49.353Z,21.20
2022-12-19T13:53:18.934Z,19.73
2022-12-19T13:55:46.725Z,17.85
2022-12-19T13:58:30.865Z,20.02
2022-12-19T14:01:04.343Z,14.40
2022-12-19T14:03:52.083Z,16.08
2022-12-19T14:06:38.952Z,18.83
2022-12-19T14:11:27.651Z,17.50
2022-12-19T14:14:01.377Z,16.98
2022-12-19T14:15:41.668Z,20.27
2022-12-19T14:18:44.993Z,10.73
2022-12-19T14:22:10.002Z,17.13
2022-12-19T14:24:25.370Z,21.95
2022-12-19T14:28:19.731Z,16.30
2022-12-19T14:30:28.005Z,16.48
2022-12-19T14:33:44.435Z,18.27
2022-12-19T14:36:12.188Z,15.68
2022-12-19T14:39:20.264Z,16.83
2022-12-19T14:41:49.484Z,17.95
2022-12-19T14:53:34.306Z,17.92
2022-12-19T14:54:04.860Z,12.43
2022-12-19T14:54:13.172Z,21.67
2022-12-19T14:54:26.803Z,17.83
2022-12-19T14:59:27.214Z,15.05
2022-12-19T15:02:32.403Z,21.67
2022-12-19T15:05:12.878Z,18.08
2022-12-19T15:07:45.323Z,13.50
2022-12-19T15:11:04.817Z,18.35
2022-12-19T15:14:47.193Z,18.85
2022-12-19T15:19:11.544Z,19.90
2022-12-19T15:21:39.980Z,23.50
2022-12-19T15:24:09.548Z,17.85
2022-12-19T15:26:50.340Z,22.77
2022-12-19T15:29:21.877Z,16.33
2022-12-19T15:31:49.913Z,21.05
2022-12-19T15:34:35.499Z,15.85
2022-12-19T15:37:05.587Z,24.17
2022-12-19T15:39:35.088Z,23.88
2022-12-19T15:42:03.337Z,24.23
2022-12-19T15:44:38.583Z,24.70
2022-12-19T15:47:18.780Z,21.33
2022-12-19T15:49:47.049Z,24.35
2022-12-19T15:52:17.647Z,24.70
2022-12-19T15:54:50.098Z,16.13
2022-12-19T16:00:18.875Z,17.63
2022-12-19T16:05:36.317Z,19.35
2022-12-19T16:08:12.403Z,13.63
2022-12-19T16:10:40.957Z,14.82
2022-12-19T16:13:26.353Z,18.27
2022-12-19T16:15:55.843Z,15.63
2022-12-19T16:18:23.065Z,21.90
2022-12-19T16:20:50.282Z,16.38
2022-12-19T16:23:18.038Z,17.05
2022-12-19T16:25:52.418Z,20.45
2022-12-19T16:28:38.737Z,14.63
2022-12-19T16:31:15.924Z,20.50
2022-12-19T16:33:43.297Z,18.73
2022-12-19T16:36:10.727Z,23.38
2022-12-19T16:38:38.269Z,18.15
2022-12-19T16:41:06.719Z,20.90
2022-12-19T16:43:44.471Z,19.20
2022-12-19T16:46:17.786Z,19.17
2022-12-19T16:48:45.045Z,18.85
2022-12-19T16:51:19.430Z,19.80
2022-12-19T16:53:47.536Z,8.20
2022-12-19T16:56:33.144Z,20.83
2022-12-19T16:59:04.757Z,21.25
2022-12-19T17:01:32.329Z,15.70
2022-12-19T17:03:59.520Z,15.45
2022-12-19T17:06:27.208Z,19.95
2022-12-19T17:09:00.694Z,19.48
2022-12-19T17:11:29.336Z,21.98
2022-12-19T17:14:04.971Z,14.73
2022-12-19T17:16:32.408Z,21.02
2022-12-19T17:19:01.475Z,21.88
2022-12-19T17:21:28.945Z,24.00
2022-12-19T17:23:56.176Z,23.00
2022-12-19T17:26:23.565Z,19.33
2022-12-19T17:28:50.694Z,21.42
2022-12-19T17:31:24.887Z,15.82
2022-12-19T17:33:53.334Z,16.48
2022-12-19T17:36:25.488Z,16.88
2022-12-19T17:38:55.227Z,15.60
2022-12-19T17:41:22.697Z,20.50
2022-12-19T17:43:52.283Z,16.52
2022-12-19T17:46:23.934Z,19.67
2022-12-19T17:48:53.250Z,16.23
2022-12-19T17:51:22.003Z,19.88
2022-12-19T17:53:50.186Z,14.13
2022-12-19T17:56:21.106Z,11.65
2022-12-19T17:58:49.919Z,18.17
2022-12-19T18:01:25.623Z,18.95
2022-12-19T18:03:56.442Z,15.07
2022-12-19T18:06:25.999Z,16.52
2022-12-19T18:08:53.334Z,15.80
2022-12-19T18:11:24.190Z,17.38
2022-12-19T18:13:52.797Z,14.85
2022-12-19T18:16:26.494Z,19.17
2022-12-19T18:18:54.493Z,19.77
2022-12-19T18:21:25.299Z,17.83
2022-12-19T18:23:53.056Z,18.58
2022-12-19T18:26:20.655Z,18.70
2022-12-19T18:28:50.960Z,19.90
2022-12-19T18:31:26.587Z,21.67
2022-12-19T18:34:20.826Z,14.55
2022-12-19T18:36:48.522Z,17.88
2022-12-19T18:39:26.411Z,16.65
2022-12-19T18:42:00.262Z,21.10
2022-12-19T18:44:27.396Z,13.27
2022-12-19T18:46:55.977Z,19.15
2022-12-19T18:49:24.339Z,14.05
2022-12-19T18:51:52.033Z,12.88
2022-12-19T18:54:22.522Z,21.10
2022-12-19T18:56:50.468Z,20.67
2022-12-19T18:59:19.035Z,14.55
2022-12-19T19:01:47.696Z,19.45
2022-12-19T19:04:18.447Z,15.70
2022-12-19T19:06:52.257Z,17.98
2022-12-19T19:09:22.013Z,18.58
2022-12-19T19:11:49.445Z,20.33
2022-12-19T19:14:16.828Z,16.38
2022-12-19T19:16:45.883Z,14.20
2022-12-19T19:19:16.667Z,20.30
2022-12-19T19:21:45.649Z,19.17
2022-12-19T19:24:17.995Z,19.40
2022-12-19T19:26:53.793Z,21.60
2022-12-19T19:29:21.194Z,18.42
2022-12-19T19:31:51.432Z,20.45
2022-12-19T19:34:32.480Z,22.05
2022-12-19T19:37:04.123Z,15.90
2022-12-19T19:39:34.506Z,18.55
2022-12-19T19:42:08.509Z,20.10
2022-12-19T19:44:36.236Z,10.25
2022-12-19T19:47:03.765Z,17.48
2022-12-19T19:49:32.011Z,19.70
2022-12-19T19:52:03.195Z,17.67
2022-12-19T19:54:32.084Z,13.77
2022-12-19T19:57:00.564Z,19.67
2022-12-19T19:59:31.907Z,20.45
2022-12-19T20:02:01.061Z,19.70
2022-12-19T20:04:28.491Z,17.20
2022-12-19T20:06:56.326Z,14.10
2022-12-19T20:09:26.966Z,15.25
2022-12-19T20:12:00.096Z,15.88
2022-12-19T20:14:28.038Z,18.58
2022-12-19T20:16:56.795Z,13.13
2022-12-19T20:19:24.616Z,14.13
2022-12-19T20:21:52.120Z,18.05
2022-12-19T20:24:19.626Z,15.15
2022-12-19T20:26:46.875Z,16.95
2022-12-19T20:29:14.981Z,17.45
2022-12-19T20:31:42.675Z,17.92
2022-12-19T20:34:11.891Z,17.17
2022-12-19T20:36:41.826Z,19.38
2022-12-19T20:39:09.911Z,19.90
2022-12-19T20:41:38.888Z,13.55
2022-12-19T20:44:12.330Z,19.17
2022-12-19T20:46:40.142Z,17.23
2022-12-19T20:49:09.192Z,13.68
2022-12-19T20:51:39.450Z,14.98
2022-12-19T20:54:11.931Z,16.58
2022-12-19T20:56:39.536Z,18.57
2022-12-19T20:59:06.845Z,18.80
2022-12-19T21:01:35.462Z,19.00
2022-12-19T21:04:02.919Z,13.50
2022-12-19T21:06:30.671Z,19.70
2022-12-19T21:09:05.532Z,18.70
2022-12-19T21:11:33.995Z,18.52
2022-12-19T21:14:02.378Z,14.00
2022-12-19T21:16:31.922Z,15.80
2022-12-19T21:18:59.491Z,19.35
2022-12-19T21:21:27.681Z,15.38
2022-12-19T21:23:55.844Z,18.60
2022-12-19T21:26:24.979Z,14.82
2022-12-19T21:28:53.762Z,18.05
2022-12-19T21:31:30.216Z,15.60
2022-12-19T21:34:00.854Z,16.95
2022-12-19T21:36:29.721Z,20.80
2022-12-19T21:38:59.514Z,15.30
2022-12-19T21:41:33.687Z,19.65
2022-12-19T21:44:01.134Z,19.60
2022-12-19T21:46:31.253Z,17.48
2022-12-19T21:48:59.346Z,13.23
2022-12-19T21:51:29.353Z,17.17
2022-12-19T21:54:03.557Z,15.70
2022-12-19T21:56:41.943Z,14.52
2022-12-19T21:59:14.584Z,16.90
2022-12-19T22:01:43.163Z,15.32
2022-12-19T22:04:21.172Z,20.38
2022-12-19T22:06:51.584Z,16.02
2022-12-19T22:09:21.658Z,13.73
2022-12-19T22:11:50.182Z,20.75
2022-12-19T22:14:18.262Z,19.67
2022-12-19T22:16:45.650Z,18.50
2022-12-19T22:19:18.444Z,18.00
2022-12-19T22:21:47.324Z,21.15
2022-12-19T22:24:17.195Z,19.08
2022-12-19T22:26:54.603Z,20.77
2022-12-19T22:29:22.201Z,13.57
2022-12-19T22:31:50.871Z,16.60
2022-12-19T22:34:20.411Z,19.45
2022-12-19T22:36:49.747Z,18.48
2022-12-19T22:39:19.646Z,12.95
2022-12-19T22:41:47.160Z,19.38
2022-12-19T22:44:24.347Z,10.23
2022-12-19T22:46:52.299Z,17.25
2022-12-19T22:49:20.096Z,17.55
2022-12-19T22:51:47.275Z,13.27
2022-12-19T22:54:16.774Z,14.93
2022-12-19T22:56:44.221Z,14.45
2022-12-19T22:59:12.972Z,16.52
2022-12-19T23:01:46.484Z,17.02
2022-12-19T23:04:15.325Z,18.52
2022-12-19T23:06:44.568Z,19.05
2022-12-19T23:09:16.343Z,17.58
2022-12-19T23:11:47.280Z,13.18
2022-12-19T23:14:16.307Z,18.58
2022-12-19T23:16:44.680Z,15.43
2022-12-19T23:19:17.521Z,16.35
2022-12-19T23:21:45.020Z,17.65
2022-12-19T23:24:12.978Z,18.85
2022-12-19T23:26:40.863Z,19.17
2022-12-19T23:29:14.475Z,17.42
2022-12-19T23:31:44.392Z,18.40
2022-12-19T23:34:13.786Z,18.88
2022-12-19T23:37:13.232Z,19.17
2022-12-19T23:39:31.119Z,19.25
2022-12-19T23:41:58.422Z,18.52
2022-12-19T23:44:27.061Z,18.42
2022-12-19T23:47:02.317Z,16.55
2022-12-19T23:49:30.208Z,18.33
2022-12-19T23:51:58.500Z,18.63
2022-12-19T23:54:26.044Z,18.35
2022-12-19T23:56:53.723Z,19.27
2022-12-19T23:59:23.291Z,18.60
